Time;durP1;ratioP1;P1;durP2;ratioP2;P2;SDS_P1;SDS_P2;PMS_P1;PMS_P2;Temp;Humidity;BMP_temperature;BMP_pressure;BME280_temperature;BME280_humidity;BME280_pressure;Samples;Min_cycle;Max_cycle;Signal;HPM_P1;HPM_P2
2022/01/16 00:08:35;;;;;;;34.28;16.45;;;;;;;-0.90;100.00;99310.00;10197558;28;20055;-77
2022/01/16 00:13:36;;;;;;;40.97;18.92;;;;;;;-0.94;100.00;99298.28;10213982;28;20509;-77
2022/01/16 00:18:48;;;;;;;34.78;17.48;;;;;;;-0.94;100.00;99293.03;10210180;28;20139;-79
2022/01/16 00:23:50;;;;;;;39.55;18.90;;;;;;;-0.97;100.00;99299.56;10259870;28;20113;-79
2022/01/16 00:28:53;;;;;;;41.05;17.58;;;;;;;-0.98;100.00;99310.31;10239720;28;20063;-77
2022/01/16 00:33:56;;;;;;;40.03;18.40;;;;;;;-0.96;100.00;99272.16;10226543;28;20059;-77
2022/01/16 00:38:58;;;;;;;41.58;19.30;;;;;;;-0.94;100.00;99248.22;10239076;28;20326;-77
2022/01/16 00:43:58;;;;;;;45.78;19.17;;;;;;;-0.90;100.00;99230.97;10221399;28;20560;-77
2022/01/16 00:48:59;;;;;;;43.95;18.95;;;;;;;-0.84;100.00;99239.78;10234214;28;20090;-76
2022/01/16 00:53:59;;;;;;;42.40;18.50;;;;;;;-0.84;100.00;99251.13;10221416;28;20048;-79
2022/01/16 00:59:00;;;;;;;40.95;17.48;;;;;;;-0.82;100.00;99246.47;10238154;28;20046;-80
2022/01/16 01:04:02;;;;;;;38.03;16.88;;;;;;;-0.80;100.00;99247.03;10246710;28;20047;-78
2022/01/16 01:09:02;;;;;;;42.58;17.13;;;;;;;-0.67;100.00;99254.72;10250903;28;20062;-81
2022/01/16 01:19:06;;;;;;;;;;;;;;;-0.76;100.00;99263.97;10233039;28;20500;-77
2022/01/16 01:24:08;;;;;;;37.47;15.90;;;;;;;-0.65;100.00;99265.03;10218162;28;19927;-79
2022/01/16 01:29:08;;;;;;;36.45;14.93;;;;;;;-0.64;100.00;99182.28;10254521;28;20070;-76
2022/01/16 01:34:09;;;;;;;33.67;16.35;;;;;;;-0.72;100.00;99180.00;10221486;28;20050;-80
2022/01/16 01:39:09;;;;;;;34.97;15.95;;;;;;;-0.66;100.00;99179.09;10235046;28;20062;-78
2022/01/16 01:54:52;;;;;;;37.63;16.48;;;;;;;-0.71;100.00;99237.78;10236086;28;20043;-76
2022/01/16 01:59:53;;;;;;;35.22;14.38;;;;;;;-0.75;100.00;99244.50;10216634;28;20063;-76
2022/01/16 02:04:53;;;;;;;37.25;14.30;;;;;;;-0.69;100.00;99250.72;10251249;28;20051;-78
2022/01/16 02:09:54;;;;;;;33.17;13.25;;;;;;;-0.57;100.00;99247.06;10278774;28;20478;-77
2022/01/16 02:15:07;;;;;;;29.58;12.60;;;;;;;-0.71;100.00;99260.69;10225545;28;20051;-77
2022/01/16 02:31:16;;;;;;;32.78;13.10;;;;;;;-0.69;100.00;99266.53;10253441;28;20111;-78
2022/01/16 02:36:32;;;;;;;35.97;13.45;;;;;;;-0.64;100.00;99254.28;10250550;28;20051;-79
2022/01/16 02:41:35;;;;;;;33.45;13.02;;;;;;;-0.66;100.00;99251.06;10224481;28;20187;-79
2022/01/16 02:46:36;;;;;;;34.47;12.75;;;;;;;-0.60;100.00;99238.81;10238470;28;20187;-81
2022/01/16 02:51:37;;;;;;;34.13;12.98;;;;;;;-0.61;100.00;99259.09;10226177;28;20127;-79
2022/01/16 02:56:39;;;;;;;31.05;12.02;;;;;;;-0.55;100.00;99243.41;10217802;28;20154;-77
2022/01/16 03:01:41;;;;;;;33.67;12.02;;;;;;;-0.46;100.00;99234.13;10218774;28;20063;-79
2022/01/16 03:06:42;;;;;;;24.48;10.52;;;;;;;-0.53;100.00;99221.06;10248771;28;20515;-80
2022/01/16 03:11:48;;;;;;;30.35;12.00;;;;;;;-0.67;100.00;99211.75;10236886;28;20046;-78
2022/01/16 03:16:53;;;;;;;22.67;10.55;;;;;;;-0.59;100.00;99211.41;10215300;28;20048;-78
2022/01/16 03:21:54;;;;;;;26.13;11.52;;;;;;;-0.68;100.00;99199.59;10221333;28;20162;-77
2022/01/16 03:26:57;;;;;;;28.17;11.57;;;;;;;-0.62;100.00;99201.34;10249043;28;20135;-77
2022/01/16 03:32:00;;;;;;;28.42;13.20;;;;;;;-0.59;100.00;99201.69;10228181;28;20054;-77
2022/01/16 03:37:01;;;;;;;28.27;11.50;;;;;;;-0.71;100.00;99190.31;10238146;28;20052;-82
2022/01/16 03:42:02;;;;;;;30.38;13.02;;;;;;;-0.70;100.00;99189.28;10208251;28;20054;-77
2022/01/16 03:47:03;;;;;;;33.35;12.68;;;;;;;-0.71;100.00;99182.41;10221501;28;20344;-81
2022/01/16 03:52:04;;;;;;;33.05;13.90;;;;;;;-0.70;100.00;99181.38;10253095;28;20144;-77
2022/01/16 03:57:05;;;;;;;33.22;12.77;;;;;;;-0.69;100.00;99179.53;10218831;28;20051;-77
2022/01/16 04:02:05;;;;;;;30.20;13.50;;;;;;;-0.72;100.00;99167.63;10210500;28;20167;-80
2022/01/16 04:07:58;;;;;;;29.15;13.02;;;;;;;-0.71;100.00;99163.97;10226383;28;20051;-78
2022/01/16 04:12:58;;;;;;;35.90;15.43;;;;;;;-0.69;100.00;99171.63;10211384;28;20051;-78
2022/01/16 04:18:03;;;;;;;39.08;14.82;;;;;;;-0.72;100.00;99177.38;10236029;28;20047;-78
2022/01/16 04:23:06;;;;;;;30.42;14.45;;;;;;;-0.68;100.00;99165.34;10236560;28;20052;-78
2022/01/16 04:28:07;;;;;;;30.95;13.48;;;;;;;-0.75;100.00;99159.38;10256521;28;20130;-79
2022/01/16 04:33:07;;;;;;;34.67;14.85;;;;;;;-0.72;100.00;99165.00;10262651;28;20185;-76
2022/01/16 04:38:08;;;;;;;38.65;15.40;;;;;;;-0.71;100.00;99163.97;10234717;28;20538;-78
2022/01/16 04:48:35;;;;;;;29.92;13.00;;;;;;;-0.61;100.00;99160.75;10229836;28;20091;-76
2022/01/16 04:53:36;;;;;;;33.63;13.73;;;;;;;-0.73;100.00;99166.03;10246006;28;20067;-76
2022/01/16 04:58:40;;;;;;;28.58;13.95;;;;;;;-0.70;100.00;99176.13;10227611;28;20051;-77
2022/01/16 05:03:41;;;;;;;30.27;14.10;;;;;;;-0.72;100.00;99172.09;10227321;28;20126;-76
2022/01/16 05:08:41;;;;;;;28.08;13.57;;;;;;;-0.56;100.00;99168.78;10249403;28;20075;-76
2022/01/16 05:18:43;;;;;;;38.00;13.80;;;;;;;-0.60;100.00;99186.91;10225087;28;20056;-78
2022/01/16 05:23:44;;;;;;;31.05;12.48;;;;;;;-0.49;100.00;99197.69;10238220;28;20047;-77
2022/01/16 05:28:45;;;;;;;31.88;12.38;;;;;;;-0.48;100.00;99201.91;10239045;28;20047;-81
2022/01/16 05:33:46;;;;;;;28.42;11.98;;;;;;;-0.58;100.00;99190.09;10245176;28;20043;-77
2022/01/16 05:38:47;;;;;;;27.02;11.57;;;;;;;-0.54;100.00;99179.91;10237256;28;20051;-77
2022/01/16 05:43:49;;;;;;;27.88;12.00;;;;;;;-0.63;100.00;99181.28;10282138;28;20055;-80
2022/01/16 05:48:50;;;;;;;21.98;9.35;;;;;;;-0.74;100.00;99177.56;10246889;28;20044;-77
2022/01/16 05:53:52;;;;;;;23.35;10.85;;;;;;;-0.76;100.00;99184.13;10217216;28;20048;-79
2022/01/16 05:58:54;;;;;;;28.75;10.63;;;;;;;-0.91;100.00;99174.03;10219612;28;20576;-78
2022/01/16 06:03:54;;;;;;;23.45;10.40;;;;;;;-0.99;100.00;99172.50;10234793;28;20427;-76
2022/01/16 06:08:55;;;;;;;26.88;10.75;;;;;;;-0.94;100.00;99169.97;10224388;28;20059;-77
2022/01/16 06:13:56;;;;;;;26.02;11.13;;;;;;;-0.92;100.00;99181.09;10216676;28;20114;-80
2022/01/16 06:18:58;;;;;;;30.67;11.30;;;;;;;-0.81;100.00;99179.53;10219138;28;20102;-77
2022/01/16 06:23:58;;;;;;;24.95;11.25;;;;;;;-0.86;100.00;99182.03;10215160;28;20110;-77
2022/01/16 06:29:01;;;;;;;30.30;11.53;;;;;;;-0.98;100.00;99166.22;10215489;28;20183;-79
2022/01/16 06:34:05;;;;;;;26.80;10.80;;;;;;;-0.84;100.00;99166.00;10255695;28;20139;-78
2022/01/16 06:39:13;;;;;;;28.65;10.20;;;;;;;-0.96;100.00;99166.78;10261406;28;20079;-77
2022/01/16 06:44:14;;;;;;;34.97;13.32;;;;;;;-0.93;100.00;99179.50;10255288;28;20078;-76
2022/01/16 06:49:14;;;;;;;32.42;12.32;;;;;;;-0.86;100.00;99177.56;10265300;28;20447;-78
2022/01/16 06:54:15;;;;;;;30.42;12.35;;;;;;;-0.85;100.00;99181.00;10293021;28;20107;-79
2022/01/16 06:59:15;;;;;;;30.25;12.38;;;;;;;-0.84;100.00;99190.50;10294320;28;20054;-79
2022/01/16 07:04:17;;;;;;;34.03;11.27;;;;;;;-0.83;100.00;99199.22;10297326;28;20181;-78
2022/01/16 07:09:23;;;;;;;36.38;12.48;;;;;;;-0.82;100.00;99220.09;10273166;28;20078;-77
2022/01/16 07:14:24;;;;;;;30.52;12.90;;;;;;;-0.74;100.00;99237.41;10260170;28;20063;-79
2022/01/16 07:19:25;;;;;;;32.08;12.55;;;;;;;-0.65;100.00;99250.03;10235979;28;20056;-78
2022/01/16 07:24:26;;;;;;;29.23;12.65;;;;;;;-0.54;100.00;99243.19;10251446;28;20066;-78
2022/01/16 07:29:29;;;;;;;27.17;12.95;;;;;;;-0.39;100.00;99242.75;10214182;28;20063;-78
2022/01/16 07:34:30;;;;;;;31.60;11.95;;;;;;;-0.38;100.00;99253.06;10250742;28;20043;-79
2022/01/16 07:39:31;;;;;;;33.40;13.82;;;;;;;-0.57;100.00;99254.97;10260566;28;20048;-79
2022/01/16 07:44:31;;;;;;;32.17;14.55;;;;;;;-0.62;100.00;99264.59;10270187;28;20043;-78
2022/01/16 07:49:32;;;;;;;34.83;13.73;;;;;;;-0.55;100.00;99248.66;10256133;28;20090;-78
2022/01/16 07:54:35;;;;;;;33.38;15.05;;;;;;;-0.70;100.00;99249.91;10252649;28;20080;-79
2022/01/16 07:59:40;;;;;;;33.88;14.43;;;;;;;-0.55;100.00;99257.38;10273144;28;20134;-77
2022/01/16 08:04:42;;;;;;;32.28;14.65;;;;;;;-0.45;100.00;99254.22;10270868;28;20055;-78
2022/01/16 08:09:57;;;;;;;34.15;14.15;;;;;;;-0.43;100.00;99260.06;10249099;28;20052;-82
2022/01/16 08:15:31;;;;;;;32.58;14.95;;;;;;;-0.39;100.00;99250.66;10223152;28;20055;-79
2022/01/16 08:20:34;;;;;;;34.65;14.95;;;;;;;-0.28;100.00;99253.28;10253056;28;20510;-79
2022/01/16 08:25:37;;;;;;;31.85;13.75;;;;;;;-0.30;100.00;99242.19;10247559;28;20093;-80
2022/01/16 08:30:38;;;;;;;35.00;14.23;;;;;;;-0.26;100.00;99255.72;10224570;28;20066;-77
2022/01/16 08:35:43;;;;;;;36.30;14.50;;;;;;;-0.07;100.00;99246.66;10239389;28;20060;-78
2022/01/16 08:40:46;;;;;;;;;;;;;;;-0.18;100.00;99247.47;10240056;28;20107;-79
2022/01/16 08:45:47;;;;;;;38.47;16.00;;;;;;;-0.06;100.00;99242.19;10223374;28;19926;-77
2022/01/16 08:50:47;;;;;;;37.83;17.05;;;;;;;0.01;100.00;99248.16;10217040;28;20075;-79
2022/01/16 08:55:48;;;;;;;42.85;18.48;;;;;;;0.06;100.00;99253.53;10244554;28;20044;-78
2022/01/16 09:00:50;;;;;;;40.17;17.83;;;;;;;0.19;100.00;99257.81;10212601;28;20118;-78
2022/01/16 09:05:54;;;;;;;46.28;21.38;;;;;;;0.12;100.00;99246.56;10227212;28;20098;-81
2022/01/16 09:10:55;;;;;;;44.42;19.63;;;;;;;0.18;100.00;99259.63;10215904;28;20051;-77
2022/01/16 09:15:57;;;;;;;48.47;21.23;;;;;;;0.27;100.00;99245.06;10227036;28;20060;-79
2022/01/16 09:20:57;;;;;;;46.00;19.65;;;;;;;0.26;100.00;99253.97;10218685;28;20565;-79
2022/01/16 09:25:59;;;;;;;50.20;21.92;;;;;;;0.25;100.00;99257.66;10235841;28;20091;-78
2022/01/16 09:31:01;;;;;;;54.33;21.25;;;;;;;0.19;100.00;99261.25;10231209;28;20081;-79
2022/01/16 09:36:04;;;;;;;51.33;22.83;;;;;;;0.29;100.00;99268.56;10232133;28;20083;-79
2022/01/16 09:41:05;;;;;;;51.20;23.07;;;;;;;0.37;100.00;99268.22;10202521;28;20087;-77
2022/01/16 09:46:08;;;;;;;52.90;24.55;;;;;;;0.34;100.00;99273.94;10217696;28;20066;-77
2022/01/16 09:51:09;;;;;;;49.85;23.23;;;;;;;0.53;100.00;99282.53;10219776;28;20401;-78
2022/01/16 09:56:11;;;;;;;51.13;21.80;;;;;;;0.25;100.00;99278.78;10225644;28;20046;-78
2022/01/16 10:01:12;;;;;;;51.08;24.05;;;;;;;0.26;100.00;99292.78;10234306;28;20070;-79
2022/01/16 10:06:14;;;;;;;50.10;22.30;;;;;;;0.42;100.00;99286.00;10213378;28;20396;-78
2022/01/16 10:11:38;;;;;;;45.05;22.25;;;;;;;0.31;100.00;99278.91;10238344;28;20058;-78
2022/01/16 10:16:41;;;;;;;45.90;22.13;;;;;;;0.27;100.00;99268.81;10253346;28;20047;-77
2022/01/16 10:21:43;;;;;;;45.22;20.95;;;;;;;0.22;100.00;99259.97;10253459;28;20047;-77
2022/01/16 10:26:45;;;;;;;46.88;21.65;;;;;;;0.08;100.00;99259.38;10306825;28;20030;-79
2022/01/16 10:31:46;;;;;;;44.42;21.23;;;;;;;-0.04;100.00;99263.88;10273940;28;20066;-77
2022/01/16 10:36:47;;;;;;;47.50;21.77;;;;;;;0.09;100.00;99276.84;10296018;28;20051;-77
2022/01/16 10:42:13;;;;;;;48.45;21.30;;;;;;;0.16;100.00;99276.72;10253410;28;20051;-79
2022/01/16 10:47:36;;;;;;;;;;;;;;;0.10;100.00;99283.75;10258956;28;20047;-78
2022/01/16 10:52:59;;;;;;;47.13;20.98;;;;;;;0.20;100.00;99291.06;10255285;28;19922;-77
2022/01/16 10:58:12;;;;;;;44.42;19.65;;;;;;;0.25;100.00;99307.81;10276253;28;20116;-77
2022/01/16 11:03:20;;;;;;;45.65;19.58;;;;;;;0.10;100.00;99307.50;10266097;28;20101;-79
2022/01/16 11:08:25;;;;;;;43.30;19.42;;;;;;;-0.05;100.00;99309.75;10266243;28;20070;-77
2022/01/16 11:13:32;;;;;;;41.90;18.15;;;;;;;-0.10;100.00;99321.00;10260541;28;20039;-78
2022/01/16 11:18:40;;;;;;;43.80;18.52;;;;;;;-0.16;100.00;99329.03;10259542;28;20054;-80
2022/01/16 11:28:45;;;;;;;38.88;17.83;;;;;;;-0.06;100.00;99327.44;10276340;28;20046;-78
2022/01/16 11:33:45;;;;;;;35.28;16.52;;;;;;;-0.05;100.00;99329.03;10273665;28;20054;-79
2022/01/16 11:39:02;;;;;;;32.10;14.43;;;;;;;-0.24;100.00;99338.06;10273522;28;20129;-78
2022/01/16 11:44:08;;;;;;;32.30;15.18;;;;;;;-0.15;100.00;99338.56;10265652;28;20058;-78
2022/01/16 11:49:17;;;;;;;35.47;16.05;;;;;;;-0.34;100.00;99353.66;10264277;28;20039;-77
2022/01/16 11:54:25;;;;;;;30.88;14.82;;;;;;;-0.20;100.00;99354.25;10270868;28;20059;-77
2022/01/16 11:59:37;;;;;;;34.17;16.05;;;;;;;-0.15;100.00;99364.94;10285900;28;20047;-77
2022/01/16 12:04:38;;;;;;;34.90;15.13;;;;;;;-0.17;100.00;99369.63;10257560;28;20055;-77
2022/01/16 12:09:39;;;;;;;32.40;14.32;;;;;;;-0.04;100.00;99356.22;10265010;28;20101;-77
2022/01/16 12:15:17;;;;;;;26.48;12.38;;;;;;;-0.01;100.00;99361.03;10270499;28;20047;-77
2022/01/16 12:20:18;;;;;;;22.77;11.60;;;;;;;-0.01;100.00;99351.28;10288686;28;20057;-79
2022/01/16 12:25:20;;;;;;;26.38;13.77;;;;;;;0.14;100.00;99353.50;10270175;28;20047;-79
2022/01/16 12:30:51;;;;;;;28.70;13.38;;;;;;;0.12;100.00;99347.66;10283426;28;20035;-81
2022/01/16 12:36:00;;;;;;;26.15;13.07;;;;;;;0.24;100.00;99351.09;10296899;28;20042;-79
2022/01/16 12:41:07;;;;;;;26.88;12.65;;;;;;;0.22;100.00;99347.09;10269709;28;20059;-78
2022/01/16 12:46:15;;;;;;;21.63;12.35;;;;;;;0.22;100.00;99341.81;10280245;28;20051;-81
2022/01/16 12:51:53;;;;;;;21.63;12.05;;;;;;;0.21;100.00;99334.91;10263178;28;20051;-80
2022/01/16 12:57:00;;;;;;;25.25;11.70;;;;;;;0.16;100.00;99342.72;10260361;28;20130;-78
2022/01/16 13:02:03;;;;;;;22.98;12.05;;;;;;;0.17;100.00;99339.84;10265685;28;20130;-78
2022/01/16 13:07:18;;;;;;;23.30;10.98;;;;;;;0.22;100.00;99339.16;10250606;28;20049;-79
2022/01/16 13:12:23;;;;;;;19.88;10.40;;;;;;;0.29;100.00;99321.38;10251435;28;20097;-78
2022/01/16 13:17:25;;;;;;;22.23;10.45;;;;;;;0.13;100.00;99341.34;10264462;28;20115;-79
2022/01/16 13:22:37;;;;;;;20.42;9.93;;;;;;;0.19;100.00;99337.78;10318561;23;20036;-78
2022/01/16 13:27:39;;;;;;;20.85;10.32;;;;;;;0.28;100.00;99338.25;10383954;28;20053;-80
2022/01/16 13:32:42;;;;;;;22.17;11.38;;;;;;;0.19;100.00;99345.72;10359066;28;20116;-78
2022/01/16 13:37:45;;;;;;;21.63;11.60;;;;;;;0.10;100.00;99335.72;10378578;28;20046;-80
2022/01/16 13:48:10;;;;;;;25.35;13.15;;;;;;;0.03;100.00;99364.06;10387003;28;20046;-80
2022/01/16 13:53:17;;;;;;;25.08;12.82;;;;;;;0.12;100.00;99360.06;10436933;28;20072;-82
2022/01/16 13:58:23;;;;;;;25.98;12.23;;;;;;;0.24;100.00;99380.13;10414382;28;20037;-83
2022/01/16 14:03:27;;;;;;;26.38;12.93;;;;;;;0.15;100.00;99384.13;10414064;28;20401;-79
2022/01/16 14:08:39;;;;;;;24.42;12.43;;;;;;;0.16;100.00;99392.88;10392002;28;20042;-82
2022/01/16 14:14:08;;;;;;;26.60;13.00;;;;;;;0.17;100.00;99397.91;10401973;28;20044;-82
2022/01/16 14:19:53;;;;;;;29.58;14.25;;;;;;;0.20;100.00;99402.75;10384491;28;20063;-81
2022/01/16 14:25:07;;;;;;;29.40;14.52;;;;;;;0.15;100.00;99402.63;10354704;28;20488;-81
2022/01/16 14:30:25;;;;;;;33.63;15.73;;;;;;;0.12;100.00;99420.75;10341625;28;20054;-79
2022/01/16 14:35:49;;;;;;;31.10;16.33;;;;;;;-0.09;100.00;99428.16;10345634;28;20049;-79
2022/01/16 14:40:51;;;;;;;31.70;15.60;;;;;;;-0.07;100.00;99446.41;10350105;28;20046;-81
2022/01/16 14:45:53;;;;;;;36.83;16.88;;;;;;;0.01;100.00;99446.09;10337987;28;20313;-81
2022/01/16 14:51:10;;;;;;;40.35;18.40;;;;;;;0.00;100.00;99452.41;10364648;28;20054;-81
2022/01/16 14:56:14;;;;;;;37.38;17.38;;;;;;;0.10;100.00;99450.03;10407799;28;20064;-83
2022/01/16 15:01:15;;;;;;;;;;;;;;;0.07;100.00;99445.19;10414208;28;20035;-80
2022/01/16 15:06:19;;;;;;;42.88;18.98;;;;;;;0.02;100.00;99452.97;10392216;28;19925;-78
2022/01/16 15:11:20;;;;;;;37.75;17.23;;;;;;;0.12;100.00;99455.06;10381398;28;20040;-81
2022/01/16 15:16:27;;;;;;;38.30;17.75;;;;;;;0.03;100.00;99456.44;10397033;28;20089;-79
2022/01/16 15:21:37;;;;;;;40.22;19.08;;;;;;;-0.01;100.00;99463.97;10399538;28;20402;-81
2022/01/16 15:26:38;;;;;;;42.20;18.98;;;;;;;0.10;100.00;99476.41;10371568;28;20165;-74
2022/01/16 15:31:39;;;;;;;47.72;21.35;;;;;;;0.21;100.00;99482.75;10373580;28;20153;-77
2022/01/16 15:36:40;;;;;;;41.72;19.08;;;;;;;0.14;100.00;99490.75;10364442;28;20053;-79
2022/01/16 15:41:42;;;;;;;43.40;19.40;;;;;;;0.19;100.00;99496.19;10380140;28;20434;-79
2022/01/16 15:46:45;;;;;;;54.95;22.15;;;;;;;0.08;100.00;99496.13;10368032;28;20046;-78
2022/01/16 15:51:47;;;;;;;44.33;20.13;;;;;;;0.22;100.00;99510.75;10360016;28;20042;-77
2022/01/16 15:56:47;;;;;;;47.72;20.13;;;;;;;0.31;100.00;99496.22;10353059;28;20045;-77
2022/01/16 16:01:49;;;;;;;49.95;20.00;;;;;;;0.49;100.00;99504.06;10355956;28;20050;-77
2022/01/16 16:06:50;;;;;;;44.90;20.92;;;;;;;0.46;100.00;99512.44;10364835;28;20126;-77
2022/01/16 16:11:55;;;;;;;42.15;20.48;;;;;;;0.41;100.00;99520.22;10371425;28;20042;-78
2022/01/16 16:16:56;;;;;;;44.15;19.55;;;;;;;0.48;100.00;99543.91;10370946;28;20041;-78
2022/01/16 16:21:57;;;;;;;47.22;20.65;;;;;;;0.48;100.00;99544.72;10358128;28;20049;-76
2022/01/16 16:26:59;;;;;;;43.40;20.77;;;;;;;0.62;100.00;99544.50;10333981;28;20060;-77
2022/01/16 16:31:59;;;;;;;46.67;21.00;;;;;;;0.58;100.00;99541.53;10351602;28;20470;-78
2022/01/16 16:37:00;;;;;;;48.25;19.55;;;;;;;0.59;100.00;99550.25;10364519;28;20081;-78
2022/01/16 16:42:02;;;;;;;42.75;19.83;;;;;;;0.65;100.00;99552.00;10360309;28;20050;-79
2022/01/16 16:47:05;;;;;;;45.75;19.60;;;;;;;0.61;100.00;99550.81;10366318;28;20458;-80
2022/01/16 16:52:09;;;;;;;45.13;20.40;;;;;;;0.59;100.00;99543.13;10346788;28;20509;-78
2022/01/16 16:57:12;;;;;;;42.83;19.73;;;;;;;0.60;100.00;99550.00;10335769;28;20576;-77
2022/01/16 17:02:14;;;;;;;41.13;19.17;;;;;;;0.75;100.00;99545.13;10355343;28;20191;-79
2022/01/16 17:07:16;;;;;;;39.47;18.40;;;;;;;0.80;100.00;99553.16;10355811;28;20092;-80
2022/01/16 17:12:23;;;;;;;41.72;20.00;;;;;;;0.77;100.00;99561.53;10372227;28;20117;-80
2022/01/16 17:17:26;;;;;;;51.28;23.95;;;;;;;0.68;100.00;99581.41;10385733;28;20072;-81
2022/01/16 17:22:27;;;;;;;42.47;19.67;;;;;;;0.80;100.00;99592.78;10393256;28;20050;-80
2022/01/16 17:27:29;;;;;;;40.97;20.92;;;;;;;0.77;100.00;99582.69;10415064;28;20061;-80
2022/01/16 17:32:30;;;;;;;38.97;20.35;;;;;;;0.78;100.00;99573.72;10390212;28;20053;-78
2022/01/16 17:37:33;;;;;;;39.55;20.23;;;;;;;0.81;100.00;99575.91;10390326;28;20463;-80
2022/01/16 17:42:33;;;;;;;45.10;20.73;;;;;;;0.81;100.00;99581.19;10392501;28;20088;-80
2022/01/16 17:47:34;;;;;;;44.33;19.92;;;;;;;0.78;100.00;99573.72;10387543;28;20046;-80
2022/01/16 17:52:35;;;;;;;44.83;21.02;;;;;;;0.74;100.00;99577.06;10383190;28;20081;-79
2022/01/16 17:57:39;;;;;;;44.35;20.40;;;;;;;0.78;100.00;99586.94;10373210;28;20109;-78
2022/01/16 18:02:44;;;;;;;44.95;21.10;;;;;;;0.76;100.00;99585.56;10368871;28;20104;-79
2022/01/16 18:07:46;;;;;;;44.33;22.10;;;;;;;0.74;100.00;99595.56;10336209;28;20042;-76
2022/01/16 18:12:47;;;;;;;40.42;20.88;;;;;;;0.69;100.00;99593.56;10356876;28;20049;-77
2022/01/16 18:17:48;;;;;;;41.13;21.08;;;;;;;0.69;100.00;99598.84;10374152;28;20060;-79
2022/01/16 18:22:51;;;;;;;38.72;21.20;;;;;;;0.78;100.00;99608.06;10372635;28;20133;-77
2022/01/16 18:27:53;;;;;;;41.65;19.17;;;;;;;0.92;100.00;99613.16;10364562;28;20050;-79
2022/01/16 18:32:57;;;;;;;40.55;20.08;;;;;;;0.83;100.00;99610.84;10369216;28;20204;-77
2022/01/16 18:37:59;;;;;;;46.97;22.48;;;;;;;1.03;100.00;99621.13;10360044;28;20057;-79
2022/01/16 18:43:04;;;;;;;45.13;21.15;;;;;;;0.96;100.00;99619.59;10393521;28;20045;-78
2022/01/16 18:48:18;;;;;;;44.60;21.77;;;;;;;1.02;100.00;99635.38;10355899;28;20050;-78
2022/01/16 18:53:35;;;;;;;46.03;22.23;;;;;;;0.96;100.00;99638.91;10374298;28;20058;-77
2022/01/16 18:58:36;;;;;;;43.20;21.50;;;;;;;1.08;100.00;99646.84;10365606;28;20034;-79
2022/01/16 19:03:40;;;;;;;40.78;21.23;;;;;;;1.11;100.00;99649.88;10382962;28;20054;-79
2022/01/16 19:08:41;;;;;;;42.45;21.42;;;;;;;1.19;100.00;99630.22;10365097;28;20070;-77
2022/01/16 19:13:42;;;;;;;44.05;21.27;;;;;;;1.13;100.00;99621.34;10360582;28;20154;-76
2022/01/16 19:18:50;;;;;;;41.80;21.20;;;;;;;1.20;100.00;99623.09;10369870;28;20529;-78
2022/01/16 19:23:52;;;;;;;42.38;21.13;;;;;;;1.13;100.00;99621.34;10360416;28;20541;-77
2022/01/16 19:28:54;;;;;;;41.55;20.35;;;;;;;1.06;100.00;99633.88;10363554;28;20092;-76
2022/01/16 19:33:58;;;;;;;46.13;21.92;;;;;;;1.23;100.00;99634.00;10371873;28;20145;-78
2022/01/16 19:38:59;;;;;;;38.15;18.98;;;;;;;1.23;100.00;99636.66;10387931;28;20045;-78
2022/01/16 19:43:59;;;;;;;41.28;21.52;;;;;;;1.24;100.00;99632.97;10391082;28;20213;-78
2022/01/16 19:49:02;;;;;;;40.25;20.73;;;;;;;1.29;100.00;99650.81;10391813;28;20068;-78
2022/01/16 19:54:04;;;;;;;41.40;21.90;;;;;;;1.31;100.00;99638.97;10375950;28;20053;-79
2022/01/16 19:59:04;;;;;;;40.47;19.95;;;;;;;1.33;100.00;99652.75;10360857;28;20041;-79
2022/01/16 20:04:05;;;;;;;41.65;21.55;;;;;;;1.30;100.00;99666.44;10369291;28;20062;-78
2022/01/16 20:09:06;;;;;;;36.05;19.27;;;;;;;1.37;100.00;99668.97;10343802;28;20129;-77
2022/01/16 20:14:07;;;;;;;33.47;18.75;;;;;;;1.28;100.00;99657.13;10366136;28;20049;-77
2022/01/16 20:19:16;;;;;;;38.80;19.75;;;;;;;1.26;100.00;99651.25;10368190;28;20112;-79
2022/01/16 20:24:17;;;;;;;35.75;17.90;;;;;;;1.31;100.00;99667.25;10367293;28;20052;-78
2022/01/16 20:34:43;;;;;;;33.03;17.77;;;;;;;1.36;100.00;99691.97;10361746;28;20084;-80
2022/01/16 20:39:44;;;;;;;33.58;18.70;;;;;;;1.48;100.00;99677.97;10383923;28;20058;-79
2022/01/16 20:44:46;;;;;;;30.30;17.42;;;;;;;1.48;100.00;99677.97;10398131;28;20049;-79
2022/01/16 20:49:47;;;;;;;32.97;17.05;;;;;;;1.39;100.00;99688.88;10398299;28;20053;-79
2022/01/16 20:54:51;;;;;;;30.50;17.17;;;;;;;1.49;100.00;99692.81;10392964;28;20045;-80
2022/01/16 21:00:24;;;;;;;27.33;17.17;;;;;;;1.53;100.00;99691.31;10401024;28;20054;-80
2022/01/16 21:05:26;;;;;;;33.45;18.95;;;;;;;1.42;100.00;99683.13;10353590;28;20057;-79
2022/01/16 21:10:27;;;;;;;33.83;19.25;;;;;;;1.54;100.00;99690.28;10354019;28;20056;-79
2022/01/16 21:15:29;;;;;;;31.10;18.63;;;;;;;1.60;100.00;99694.66;10369762;28;20045;-79
2022/01/16 21:20:36;;;;;;;31.08;17.83;;;;;;;1.52;100.00;99698.44;10374940;28;20073;-79
2022/01/16 21:25:40;;;;;;;32.97;18.40;;;;;;;1.59;100.00;99708.94;10454781;23;20026;-79
2022/01/16 21:30:43;;;;;;;;;;;;;;;1.58;100.00;99717.91;10376576;28;20046;-79
2022/01/16 21:35:44;;;;;;;33.25;18.38;;;;;;;1.59;100.00;99722.97;10375182;28;20385;-78
2022/01/16 21:40:45;;;;;;;31.88;18.63;;;;;;;1.52;100.00;99714.31;10368796;28;20132;-77
2022/01/16 21:45:47;;;;;;;37.83;19.33;;;;;;;1.43;100.00;99711.19;10355481;28;20057;-77
2022/01/16 21:50:47;;;;;;;41.88;20.60;;;;;;;1.45;100.00;99689.00;10344854;28;20046;-79
2022/01/16 21:55:49;;;;;;;36.08;20.23;;;;;;;1.50;100.00;99678.53;10365153;28;20042;-80
2022/01/16 22:00:58;;;;;;;40.30;21.10;;;;;;;1.45;100.00;99660.69;10356283;28;20050;-79
2022/01/16 22:06:00;;;;;;;40.78;20.30;;;;;;;1.47;100.00;99657.84;10390878;28;20054;-81
2022/01/16 22:11:00;;;;;;;40.05;19.92;;;;;;;1.43;100.00;99663.56;10386118;28;20081;-78
2022/01/16 22:16:05;;;;;;;37.22;19.92;;;;;;;1.41;100.00;99647.13;10348422;28;20066;-78
2022/01/16 22:21:11;;;;;;;37.55;19.00;;;;;;;1.33;100.00;99628.97;10335180;28;20123;-77
2022/01/16 22:26:14;;;;;;;37.97;19.73;;;;;;;1.42;100.00;99619.66;10343994;28;20094;-78
2022/01/16 22:31:18;;;;;;;37.75;20.33;;;;;;;1.25;100.00;99629.28;10330174;28;20060;-78
2022/01/16 22:36:21;;;;;;;42.45;21.55;;;;;;;1.29;100.00;99654.25;10328066;28;20047;-78
2022/01/16 22:41:21;;;;;;;38.78;20.35;;;;;;;1.33;100.00;99675.75;10341713;28;20069;-78
2022/01/16 22:46:22;;;;;;;40.15;21.23;;;;;;;1.34;100.00;99658.84;10332795;28;20681;-79
2022/01/16 22:51:25;;;;;;;40.95;20.73;;;;;;;1.39;100.00;99675.66;10336844;28;20046;-80
2022/01/16 22:56:26;;;;;;;38.00;20.98;;;;;;;1.46;100.00;99691.41;10339094;28;20123;-79
2022/01/16 23:01:28;;;;;;;40.63;20.55;;;;;;;1.53;100.00;99696.59;10340109;28;20038;-81
2022/01/16 23:06:30;;;;;;;38.58;20.50;;;;;;;1.61;100.00;99697.06;10339409;28;20038;-78
2022/01/16 23:11:31;;;;;;;43.00;21.30;;;;;;;1.70;100.00;99710.75;10336798;28;20054;-79
2022/01/16 23:16:37;;;;;;;42.05;21.15;;;;;;;1.69;100.00;99717.91;10339163;28;20138;-80
2022/01/16 23:21:38;;;;;;;43.20;21.45;;;;;;;1.60;100.00;99729.84;10322615;28;20046;-77
2022/01/16 23:26:39;;;;;;;38.65;20.63;;;;;;;1.58;100.00;99734.59;10333820;28;20045;-79
2022/01/16 23:31:40;;;;;;;47.85;22.17;;;;;;;1.71;100.00;99720.31;10340838;28;20334;-78
2022/01/16 23:36:41;;;;;;;42.33;22.67;;;;;;;1.70;100.00;99726.66;10322817;28;20356;-77
2022/01/16 23:41:41;;;;;;;45.45;22.13;;;;;;;1.67;100.00;99719.16;10333689;28;20054;-77
2022/01/16 23:46:42;;;;;;;44.80;21.30;;;;;;;1.75;100.00;99726.78;10334629;28;20046;-78
2022/01/16 23:51:44;;;;;;;41.40;22.48;;;;;;;1.70;100.00;99731.94;10319967;28;20046;-79
2022/01/16 23:56:46;;;;;;;;;;;;;;;1.72;100.00;99729.84;10313308;28;20178;-78
